sensor_id;sensor_type;location;lat;lon;timestamp;P1;durP1;ratioP1;P2;durP2;ratioP2
19788;SDS011;10054;59.332;18.244;2022-10-31T00:01:37;2.53;;;2.10;;
19788;SDS011;10054;59.332;18.244;2022-10-31T00:04:06;4.73;;;2.50;;
19788;SDS011;10054;59.332;18.244;2022-10-31T00:06:35;4.27;;;2.27;;
19788;SDS011;10054;59.332;18.244;2022-10-31T00:09:04;5.73;;;2.80;;
19788;SDS011;10054;59.332;18.244;2022-10-31T00:11:34;4.70;;;2.60;;
19788;SDS011;10054;59.332;18.244;2022-10-31T00:14:02;5.47;;;2.70;;
19788;SDS011;10054;59.332;18.244;2022-10-31T00:16:32;4.70;;;2.40;;
19788;SDS011;10054;59.332;18.244;2022-10-31T00:19:01;3.80;;;2.07;;
19788;SDS011;10054;59.332;18.244;2022-10-31T00:21:31;3.60;;;2.53;;
19788;SDS011;10054;59.332;18.244;2022-10-31T00:24:01;5.23;;;2.47;;
19788;SDS011;10054;59.332;18.244;2022-10-31T00:26:30;7.67;;;2.40;;
19788;SDS011;10054;59.332;18.244;2022-10-31T00:28:59;5.20;;;2.40;;
19788;SDS011;10054;59.332;18.244;2022-10-31T00:31:29;3.53;;;2.30;;
19788;SDS011;10054;59.332;18.244;2022-10-31T00:33:59;3.47;;;2.30;;
19788;SDS011;10054;59.332;18.244;2022-10-31T00:36:29;5.40;;;2.40;;
19788;SDS011;10054;59.332;18.244;2022-10-31T00:38:58;5.10;;;2.33;;
19788;SDS011;10054;59.332;18.244;2022-10-31T00:41:27;4.10;;;3.00;;
19788;SDS011;10054;59.332;18.244;2022-10-31T00:43:56;5.03;;;2.70;;
19788;SDS011;10054;59.332;18.244;2022-10-31T00:46:25;5.50;;;2.80;;
19788;SDS011;10054;59.332;18.244;2022-10-31T00:48:54;4.53;;;2.43;;
19788;SDS011;10054;59.332;18.244;2022-10-31T00:51:23;4.40;;;2.60;;
19788;SDS011;10054;59.332;18.244;2022-10-31T00:53:53;5.87;;;2.90;;
19788;SDS011;10054;59.332;18.244;2022-10-31T00:56:21;4.53;;;2.83;;
19788;SDS011;10054;59.332;18.244;2022-10-31T00:58:51;3.37;;;2.50;;
19788;SDS011;10054;59.332;18.244;2022-10-31T01:01:20;4.93;;;2.70;;
19788;SDS011;10054;59.332;18.244;2022-10-31T01:03:49;5.10;;;2.60;;
19788;SDS011;10054;59.332;18.244;2022-10-31T01:06:18;3.73;;;2.77;;
19788;SDS011;10054;59.332;18.244;2022-10-31T01:08:47;3.37;;;2.60;;
19788;SDS011;10054;59.332;18.244;2022-10-31T01:11:22;5.00;;;2.43;;
19788;SDS011;10054;59.332;18.244;2022-10-31T01:13:51;3.13;;;2.00;;
19788;SDS011;10054;59.332;18.244;2022-10-31T01:16:23;3.37;;;2.37;;
19788;SDS011;10054;59.332;18.244;2022-10-31T01:18:53;4.63;;;2.20;;
19788;SDS011;10054;59.332;18.244;2022-10-31T01:21:22;2.67;;;2.10;;
19788;SDS011;10054;59.332;18.244;2022-10-31T01:23:55;3.27;;;2.23;;
19788;SDS011;10054;59.332;18.244;2022-10-31T01:26:25;4.87;;;2.30;;
19788;SDS011;10054;59.332;18.244;2022-10-31T01:29:03;7.13;;;2.77;;
19788;SDS011;10054;59.332;18.244;2022-10-31T01:31:34;3.43;;;2.10;;
19788;SDS011;10054;59.332;18.244;2022-10-31T01:33:59;8.23;;;2.20;;
19788;SDS011;10054;59.332;18.244;2022-10-31T01:36:29;4.77;;;2.40;;
19788;SDS011;10054;59.332;18.244;2022-10-31T01:39:02;4.63;;;2.30;;
19788;SDS011;10054;59.332;18.244;2022-10-31T01:41:32;3.83;;;2.40;;
19788;SDS011;10054;59.332;18.244;2022-10-31T01:44:47;3.90;;;2.40;;
19788;SDS011;10054;59.332;18.244;2022-10-31T01:46:45;5.13;;;2.23;;
19788;SDS011;10054;59.332;18.244;2022-10-31T01:52:11;4.13;;;2.17;;
19788;SDS011;10054;59.332;18.244;2022-10-31T01:55:05;3.67;;;2.13;;
19788;SDS011;10054;59.332;18.244;2022-10-31T01:57:31;3.00;;;2.10;;
19788;SDS011;10054;59.332;18.244;2022-10-31T02:00:05;3.63;;;2.30;;
19788;SDS011;10054;59.332;18.244;2022-10-31T02:02:40;3.80;;;1.97;;
19788;SDS011;10054;59.332;18.244;2022-10-31T02:05:12;3.20;;;2.20;;
19788;SDS011;10054;59.332;18.244;2022-10-31T02:10:39;2.80;;;2.17;;
19788;SDS011;10054;59.332;18.244;2022-10-31T02:13:10;3.17;;;2.40;;
19788;SDS011;10054;59.332;18.244;2022-10-31T02:15:42;3.97;;;2.40;;
19788;SDS011;10054;59.332;18.244;2022-10-31T02:18:13;4.60;;;2.30;;
19788;SDS011;10054;59.332;18.244;2022-10-31T02:20:54;2.80;;;2.23;;
19788;SDS011;10054;59.332;18.244;2022-10-31T02:23:23;2.87;;;2.00;;
19788;SDS011;10054;59.332;18.244;2022-10-31T02:33:58;2.73;;;2.10;;
19788;SDS011;10054;59.332;18.244;2022-10-31T02:36:32;3.77;;;2.33;;
19788;SDS011;10054;59.332;18.244;2022-10-31T02:39:11;3.00;;;2.00;;
19788;SDS011;10054;59.332;18.244;2022-10-31T02:44:53;7.73;;;2.40;;
19788;SDS011;10054;59.332;18.244;2022-10-31T02:47:22;3.53;;;2.67;;
19788;SDS011;10054;59.332;18.244;2022-10-31T02:49:54;3.57;;;2.50;;
19788;SDS011;10054;59.332;18.244;2022-10-31T02:52:40;2.70;;;2.27;;
19788;SDS011;10054;59.332;18.244;2022-10-31T02:55:38;3.93;;;2.30;;
19788;SDS011;10054;59.332;18.244;2022-10-31T02:58:17;3.63;;;2.63;;
19788;SDS011;10054;59.332;18.244;2022-10-31T03:00:44;5.60;;;2.80;;
19788;SDS011;10054;59.332;18.244;2022-10-31T03:03:14;4.00;;;2.47;;
19788;SDS011;10054;59.332;18.244;2022-10-31T03:08:30;3.70;;;2.30;;
19788;SDS011;10054;59.332;18.244;2022-10-31T03:11:01;3.80;;;3.10;;
19788;SDS011;10054;59.332;18.244;2022-10-31T03:13:34;5.10;;;3.03;;
19788;SDS011;10054;59.332;18.244;2022-10-31T03:18:52;4.83;;;2.57;;
19788;SDS011;10054;59.332;18.244;2022-10-31T03:21:27;5.07;;;2.93;;
19788;SDS011;10054;59.332;18.244;2022-10-31T03:24:04;6.20;;;3.20;;
19788;SDS011;10054;59.332;18.244;2022-10-31T03:26:35;8.67;;;2.70;;
19788;SDS011;10054;59.332;18.244;2022-10-31T03:29:08;13.33;;;3.47;;
19788;SDS011;10054;59.332;18.244;2022-10-31T03:31:45;4.27;;;2.77;;
19788;SDS011;10054;59.332;18.244;2022-10-31T03:34:14;5.80;;;2.43;;
19788;SDS011;10054;59.332;18.244;2022-10-31T03:36:45;6.97;;;2.93;;
19788;SDS011;10054;59.332;18.244;2022-10-31T03:39:20;8.50;;;2.80;;
19788;SDS011;10054;59.332;18.244;2022-10-31T03:41:54;3.00;;;2.27;;
19788;SDS011;10054;59.332;18.244;2022-10-31T03:44:25;7.97;;;3.40;;
19788;SDS011;10054;59.332;18.244;2022-10-31T03:46:57;8.43;;;3.53;;
19788;SDS011;10054;59.332;18.244;2022-10-31T03:49:27;3.00;;;2.70;;
19788;SDS011;10054;59.332;18.244;2022-10-31T03:57:13;4.17;;;2.90;;
19788;SDS011;10054;59.332;18.244;2022-10-31T04:00:15;5.97;;;3.00;;
19788;SDS011;10054;59.332;18.244;2022-10-31T04:02:45;5.77;;;2.70;;
19788;SDS011;10054;59.332;18.244;2022-10-31T04:05:19;8.33;;;3.13;;
19788;SDS011;10054;59.332;18.244;2022-10-31T04:07:50;5.63;;;2.60;;
19788;SDS011;10054;59.332;18.244;2022-10-31T04:10:21;8.53;;;3.10;;
19788;SDS011;10054;59.332;18.244;2022-10-31T04:12:58;6.73;;;2.63;;
19788;SDS011;10054;59.332;18.244;2022-10-31T04:15:25;4.63;;;2.60;;
19788;SDS011;10054;59.332;18.244;2022-10-31T04:17:57;6.73;;;2.80;;
19788;SDS011;10054;59.332;18.244;2022-10-31T04:20:32;7.87;;;3.27;;
19788;SDS011;10054;59.332;18.244;2022-10-31T04:23:02;6.83;;;3.53;;
19788;SDS011;10054;59.332;18.244;2022-10-31T04:25:32;10.37;;;3.83;;
19788;SDS011;10054;59.332;18.244;2022-10-31T04:28:01;17.60;;;3.80;;
19788;SDS011;10054;59.332;18.244;2022-10-31T04:30:30;11.33;;;3.57;;
19788;SDS011;10054;59.332;18.244;2022-10-31T04:33:00;36.03;;;4.80;;
19788;SDS011;10054;59.332;18.244;2022-10-31T04:35:29;63.87;;;6.47;;
19788;SDS011;10054;59.332;18.244;2022-10-31T04:37:58;118.47;;;9.03;;
19788;SDS011;10054;59.332;18.244;2022-10-31T04:40:27;218.10;;;12.00;;
19788;SDS011;10054;59.332;18.244;2022-10-31T04:43:13;96.17;;;6.90;;
19788;SDS011;10054;59.332;18.244;2022-10-31T04:45:44;72.70;;;7.07;;
19788;SDS011;10054;59.332;18.244;2022-10-31T04:48:13;210.10;;;13.83;;
19788;SDS011;10054;59.332;18.244;2022-10-31T04:50:43;86.17;;;6.87;;
19788;SDS011;10054;59.332;18.244;2022-10-31T04:53:12;119.37;;;7.77;;
19788;SDS011;10054;59.332;18.244;2022-10-31T04:55:46;43.07;;;5.67;;
19788;SDS011;10054;59.332;18.244;2022-10-31T04:58:16;84.50;;;6.40;;
19788;SDS011;10054;59.332;18.244;2022-10-31T05:00:45;66.20;;;6.80;;
19788;SDS011;10054;59.332;18.244;2022-10-31T05:03:14;62.03;;;6.53;;
19788;SDS011;10054;59.332;18.244;2022-10-31T05:05:43;148.70;;;9.07;;
19788;SDS011;10054;59.332;18.244;2022-10-31T05:08:12;91.63;;;6.83;;
19788;SDS011;10054;59.332;18.244;2022-10-31T05:10:41;26.90;;;4.47;;
19788;SDS011;10054;59.332;18.244;2022-10-31T05:13:10;56.80;;;6.27;;
19788;SDS011;10054;59.332;18.244;2022-10-31T05:15:58;72.93;;;6.37;;
19788;SDS011;10054;59.332;18.244;2022-10-31T05:18:44;39.50;;;5.50;;
19788;SDS011;10054;59.332;18.244;2022-10-31T05:21:31;85.97;;;6.50;;
19788;SDS011;10054;59.332;18.244;2022-10-31T05:24:01;74.63;;;6.67;;
19788;SDS011;10054;59.332;18.244;2022-10-31T05:26:32;93.27;;;7.10;;
19788;SDS011;10054;59.332;18.244;2022-10-31T05:29:01;93.80;;;8.00;;
19788;SDS011;10054;59.332;18.244;2022-10-31T05:31:30;102.13;;;6.43;;
19788;SDS011;10054;59.332;18.244;2022-10-31T05:34:00;138.33;;;8.30;;
19788;SDS011;10054;59.332;18.244;2022-10-31T05:36:33;70.83;;;6.00;;
19788;SDS011;10054;59.332;18.244;2022-10-31T05:39:18;78.83;;;7.57;;
19788;SDS011;10054;59.332;18.244;2022-10-31T05:41:49;43.93;;;5.97;;
19788;SDS011;10054;59.332;18.244;2022-10-31T05:44:20;85.73;;;6.63;;
19788;SDS011;10054;59.332;18.244;2022-10-31T05:46:51;132.67;;;7.73;;
19788;SDS011;10054;59.332;18.244;2022-10-31T05:49:21;75.17;;;7.03;;
19788;SDS011;10054;59.332;18.244;2022-10-31T05:52:08;88.90;;;6.50;;
19788;SDS011;10054;59.332;18.244;2022-10-31T05:54:39;89.00;;;7.70;;
19788;SDS011;10054;59.332;18.244;2022-10-31T05:57:08;95.07;;;6.43;;
19788;SDS011;10054;59.332;18.244;2022-10-31T05:59:37;102.90;;;8.10;;
19788;SDS011;10054;59.332;18.244;2022-10-31T06:02:06;79.17;;;7.17;;
19788;SDS011;10054;59.332;18.244;2022-10-31T06:04:53;70.23;;;6.73;;
19788;SDS011;10054;59.332;18.244;2022-10-31T06:07:22;78.87;;;6.43;;
19788;SDS011;10054;59.332;18.244;2022-10-31T06:09:52;83.30;;;7.70;;
19788;SDS011;10054;59.332;18.244;2022-10-31T06:12:21;109.53;;;6.80;;
19788;SDS011;10054;59.332;18.244;2022-10-31T06:14:51;47.57;;;6.13;;
19788;SDS011;10054;59.332;18.244;2022-10-31T06:17:20;63.73;;;7.43;;
19788;SDS011;10054;59.332;18.244;2022-10-31T06:19:51;34.83;;;5.30;;
19788;SDS011;10054;59.332;18.244;2022-10-31T06:22:20;46.53;;;7.07;;
19788;SDS011;10054;59.332;18.244;2022-10-31T06:24:49;49.43;;;6.50;;
19788;SDS011;10054;59.332;18.244;2022-10-31T06:27:28;45.33;;;6.17;;
19788;SDS011;10054;59.332;18.244;2022-10-31T06:29:59;93.93;;;7.43;;
19788;SDS011;10054;59.332;18.244;2022-10-31T06:32:29;78.07;;;7.30;;
19788;SDS011;10054;59.332;18.244;2022-10-31T06:34:58;124.83;;;9.17;;
19788;SDS011;10054;59.332;18.244;2022-10-31T06:37:28;59.90;;;7.33;;
19788;SDS011;10054;59.332;18.244;2022-10-31T06:39:58;107.37;;;7.47;;
19788;SDS011;10054;59.332;18.244;2022-10-31T06:42:29;54.87;;;6.37;;
19788;SDS011;10054;59.332;18.244;2022-10-31T06:44:59;107.37;;;8.23;;
19788;SDS011;10054;59.332;18.244;2022-10-31T06:47:38;52.93;;;7.03;;
19788;SDS011;10054;59.332;18.244;2022-10-31T06:50:09;93.23;;;8.67;;
19788;SDS011;10054;59.332;18.244;2022-10-31T06:52:38;131.27;;;9.87;;
19788;SDS011;10054;59.332;18.244;2022-10-31T06:55:08;196.20;;;12.83;;
19788;SDS011;10054;59.332;18.244;2022-10-31T06:57:37;126.73;;;9.57;;
19788;SDS011;10054;59.332;18.244;2022-10-31T07:00:07;94.80;;;9.20;;
19788;SDS011;10054;59.332;18.244;2022-10-31T07:02:52;169.03;;;12.20;;
19788;SDS011;10054;59.332;18.244;2022-10-31T07:05:24;89.63;;;8.50;;
19788;SDS011;10054;59.332;18.244;2022-10-31T07:07:58;115.33;;;9.87;;
19788;SDS011;10054;59.332;18.244;2022-10-31T07:10:29;145.00;;;13.00;;
19788;SDS011;10054;59.332;18.244;2022-10-31T07:13:02;82.63;;;7.47;;
19788;SDS011;10054;59.332;18.244;2022-10-31T07:15:34;125.17;;;9.60;;
19788;SDS011;10054;59.332;18.244;2022-10-31T07:18:05;56.43;;;8.97;;
19788;SDS011;10054;59.332;18.244;2022-10-31T07:20:35;113.90;;;10.13;;
19788;SDS011;10054;59.332;18.244;2022-10-31T07:23:04;47.93;;;11.33;;
19788;SDS011;10054;59.332;18.244;2022-10-31T07:25:33;128.73;;;13.67;;
19788;SDS011;10054;59.332;18.244;2022-10-31T07:28:12;93.67;;;11.23;;
19788;SDS011;10054;59.332;18.244;2022-10-31T07:30:43;63.13;;;9.17;;
19788;SDS011;10054;59.332;18.244;2022-10-31T07:33:15;45.13;;;9.33;;
19788;SDS011;10054;59.332;18.244;2022-10-31T07:35:48;37.80;;;8.70;;
19788;SDS011;10054;59.332;18.244;2022-10-31T07:38:18;53.03;;;9.80;;
19788;SDS011;10054;59.332;18.244;2022-10-31T07:40:52;56.30;;;10.33;;
19788;SDS011;10054;59.332;18.244;2022-10-31T07:43:21;59.67;;;11.13;;
19788;SDS011;10054;59.332;18.244;2022-10-31T07:45:52;115.57;;;12.90;;
19788;SDS011;10054;59.332;18.244;2022-10-31T07:48:41;219.30;;;17.63;;
19788;SDS011;10054;59.332;18.244;2022-10-31T07:51:28;133.07;;;13.47;;
19788;SDS011;10054;59.332;18.244;2022-10-31T07:54:05;142.17;;;14.07;;
19788;SDS011;10054;59.332;18.244;2022-10-31T07:56:34;157.53;;;14.57;;
19788;SDS011;10054;59.332;18.244;2022-10-31T07:59:03;103.03;;;12.40;;
19788;SDS011;10054;59.332;18.244;2022-10-31T08:01:32;104.27;;;10.90;;
19788;SDS011;10054;59.332;18.244;2022-10-31T08:04:18;131.70;;;13.43;;
19788;SDS011;10054;59.332;18.244;2022-10-31T08:07:05;102.97;;;11.60;;
19788;SDS011;10054;59.332;18.244;2022-10-31T08:09:35;105.87;;;12.57;;
19788;SDS011;10054;59.332;18.244;2022-10-31T08:12:06;91.63;;;11.83;;
19788;SDS011;10054;59.332;18.244;2022-10-31T08:14:35;112.10;;;12.27;;
19788;SDS011;10054;59.332;18.244;2022-10-31T08:17:04;89.53;;;12.37;;
19788;SDS011;10054;59.332;18.244;2022-10-31T08:19:34;43.70;;;10.57;;
19788;SDS011;10054;59.332;18.244;2022-10-31T08:22:03;62.17;;;11.90;;
19788;SDS011;10054;59.332;18.244;2022-10-31T08:24:32;50.57;;;11.40;;
19788;SDS011;10054;59.332;18.244;2022-10-31T08:27:02;49.67;;;11.43;;
19788;SDS011;10054;59.332;18.244;2022-10-31T08:29:32;44.40;;;12.00;;
19788;SDS011;10054;59.332;18.244;2022-10-31T08:32:01;50.70;;;11.63;;
19788;SDS011;10054;59.332;18.244;2022-10-31T08:34:48;41.60;;;11.80;;
19788;SDS011;10054;59.332;18.244;2022-10-31T08:37:35;47.97;;;11.00;;
19788;SDS011;10054;59.332;18.244;2022-10-31T08:40:05;60.80;;;12.27;;
19788;SDS011;10054;59.332;18.244;2022-10-31T08:42:34;42.93;;;11.30;;
19788;SDS011;10054;59.332;18.244;2022-10-31T08:45:04;51.90;;;12.40;;
19788;SDS011;10054;59.332;18.244;2022-10-31T08:47:33;44.90;;;11.27;;
19788;SDS011;10054;59.332;18.244;2022-10-31T08:50:03;52.80;;;12.43;;
19788;SDS011;10054;59.332;18.244;2022-10-31T08:52:34;53.63;;;11.17;;
19788;SDS011;10054;59.332;18.244;2022-10-31T08:55:03;68.93;;;13.63;;
19788;SDS011;10054;59.332;18.244;2022-10-31T08:57:54;57.87;;;12.27;;
19788;SDS011;10054;59.332;18.244;2022-10-31T09:00:25;66.33;;;12.63;;
19788;SDS011;10054;59.332;18.244;2022-10-31T09:03:00;78.93;;;13.70;;
19788;SDS011;10054;59.332;18.244;2022-10-31T09:05:31;60.20;;;12.27;;
19788;SDS011;10054;59.332;18.244;2022-10-31T09:08:02;64.50;;;12.53;;
19788;SDS011;10054;59.332;18.244;2022-10-31T09:10:32;77.13;;;14.57;;
19788;SDS011;10054;59.332;18.244;2022-10-31T09:13:06;54.90;;;12.43;;
19788;SDS011;10054;59.332;18.244;2022-10-31T09:15:57;51.90;;;11.03;;
19788;SDS011;10054;59.332;18.244;2022-10-31T09:18:27;55.20;;;12.83;;
19788;SDS011;10054;59.332;18.244;2022-10-31T09:20:58;64.93;;;12.57;;
19788;SDS011;10054;59.332;18.244;2022-10-31T09:23:29;55.53;;;12.43;;
19788;SDS011;10054;59.332;18.244;2022-10-31T09:25:59;49.03;;;12.27;;
19788;SDS011;10054;59.332;18.244;2022-10-31T09:28:42;51.97;;;12.00;;
19788;SDS011;10054;59.332;18.244;2022-10-31T09:31:12;52.10;;;13.23;;
19788;SDS011;10054;59.332;18.244;2022-10-31T09:33:43;41.53;;;11.83;;
19788;SDS011;10054;59.332;18.244;2022-10-31T09:36:13;38.73;;;12.30;;
19788;SDS011;10054;59.332;18.244;2022-10-31T09:38:42;48.57;;;12.80;;
19788;SDS011;10054;59.332;18.244;2022-10-31T09:41:18;47.27;;;12.77;;
19788;SDS011;10054;59.332;18.244;2022-10-31T09:43:50;46.67;;;12.47;;
19788;SDS011;10054;59.332;18.244;2022-10-31T09:46:37;36.70;;;11.33;;
19788;SDS011;10054;59.332;18.244;2022-10-31T09:49:32;40.77;;;11.80;;
19788;SDS011;10054;59.332;18.244;2022-10-31T09:52:18;41.30;;;11.93;;
19788;SDS011;10054;59.332;18.244;2022-10-31T09:55:08;39.07;;;12.03;;
19788;SDS011;10054;59.332;18.244;2022-10-31T09:57:31;44.97;;;12.07;;
19788;SDS011;10054;59.332;18.244;2022-10-31T10:00:07;37.37;;;12.07;;
19788;SDS011;10054;59.332;18.244;2022-10-31T10:05:27;42.07;;;11.47;;
19788;SDS011;10054;59.332;18.244;2022-10-31T10:08:08;38.90;;;12.60;;
19788;SDS011;10054;59.332;18.244;2022-10-31T10:14:08;34.13;;;11.97;;
19788;SDS011;10054;59.332;18.244;2022-10-31T10:16:53;32.20;;;12.87;;
19788;SDS011;10054;59.332;18.244;2022-10-31T10:19:29;33.60;;;12.73;;
19788;SDS011;10054;59.332;18.244;2022-10-31T10:29:57;38.17;;;13.60;;
19788;SDS011;10054;59.332;18.244;2022-10-31T10:32:40;33.90;;;12.57;;
19788;SDS011;10054;59.332;18.244;2022-10-31T10:35:17;38.37;;;13.03;;
19788;SDS011;10054;59.332;18.244;2022-10-31T10:37:43;35.50;;;13.20;;
19788;SDS011;10054;59.332;18.244;2022-10-31T10:43:33;29.60;;;11.70;;
19788;SDS011;10054;59.332;18.244;2022-10-31T10:54:33;30.83;;;11.33;;
19788;SDS011;10054;59.332;18.244;2022-10-31T10:59:59;26.77;;;11.97;;
19788;SDS011;10054;59.332;18.244;2022-10-31T11:02:33;33.57;;;12.43;;
19788;SDS011;10054;59.332;18.244;2022-10-31T11:05:02;27.63;;;12.87;;
19788;SDS011;10054;59.332;18.244;2022-10-31T11:07:40;30.47;;;12.60;;
19788;SDS011;10054;59.332;18.244;2022-10-31T11:10:13;31.53;;;11.93;;
19788;SDS011;10054;59.332;18.244;2022-10-31T11:12:44;28.10;;;12.00;;
19788;SDS011;10054;59.332;18.244;2022-10-31T11:15:19;30.90;;;11.73;;
19788;SDS011;10054;59.332;18.244;2022-10-31T11:17:50;28.17;;;12.47;;
19788;SDS011;10054;59.332;18.244;2022-10-31T11:20:23;29.10;;;11.93;;
19788;SDS011;10054;59.332;18.244;2022-10-31T11:23:00;30.77;;;12.73;;
19788;SDS011;10054;59.332;18.244;2022-10-31T11:25:24;29.00;;;12.47;;
19788;SDS011;10054;59.332;18.244;2022-10-31T11:28:00;28.20;;;13.10;;
19788;SDS011;10054;59.332;18.244;2022-10-31T11:30:31;23.30;;;11.50;;
19788;SDS011;10054;59.332;18.244;2022-10-31T11:33:02;28.50;;;13.03;;
19788;SDS011;10054;59.332;18.244;2022-10-31T11:35:31;26.60;;;12.30;;
19788;SDS011;10054;59.332;18.244;2022-10-31T11:38:00;32.70;;;12.63;;
19788;SDS011;10054;59.332;18.244;2022-10-31T11:40:32;26.13;;;11.93;;
19788;SDS011;10054;59.332;18.244;2022-10-31T11:43:00;29.20;;;12.90;;
19788;SDS011;10054;59.332;18.244;2022-10-31T11:45:33;31.57;;;12.83;;
19788;SDS011;10054;59.332;18.244;2022-10-31T11:48:13;27.17;;;12.33;;
19788;SDS011;10054;59.332;18.244;2022-10-31T11:50:40;29.33;;;13.23;;
19788;SDS011;10054;59.332;18.244;2022-10-31T11:53:17;29.17;;;12.90;;
19788;SDS011;10054;59.332;18.244;2022-10-31T11:55:44;30.03;;;13.20;;
19788;SDS011;10054;59.332;18.244;2022-10-31T11:58:22;30.27;;;13.70;;
19788;SDS011;10054;59.332;18.244;2022-10-31T12:00:54;28.63;;;12.90;;
19788;SDS011;10054;59.332;18.244;2022-10-31T12:03:36;23.93;;;12.83;;
19788;SDS011;10054;59.332;18.244;2022-10-31T12:06:09;27.23;;;13.43;;
19788;SDS011;10054;59.332;18.244;2022-10-31T12:08:48;26.63;;;13.50;;
19788;SDS011;10054;59.332;18.244;2022-10-31T12:24:57;28.93;;;13.93;;
19788;SDS011;10054;59.332;18.244;2022-10-31T12:28:31;31.60;;;13.77;;
19788;SDS011;10054;59.332;18.244;2022-10-31T12:35:44;25.77;;;12.93;;
19788;SDS011;10054;59.332;18.244;2022-10-31T12:41:17;24.93;;;12.37;;
19788;SDS011;10054;59.332;18.244;2022-10-31T12:43:52;25.07;;;12.10;;
19788;SDS011;10054;59.332;18.244;2022-10-31T12:49:34;27.50;;;12.07;;
19788;SDS011;10054;59.332;18.244;2022-10-31T12:59:49;23.67;;;10.53;;
19788;SDS011;10054;59.332;18.244;2022-10-31T13:02:36;19.87;;;10.20;;
19788;SDS011;10054;59.332;18.244;2022-10-31T13:06:12;21.70;;;10.00;;
19788;SDS011;10054;59.332;18.244;2022-10-31T13:08:08;18.33;;;10.17;;
19788;SDS011;10054;59.332;18.244;2022-10-31T13:13:15;18.30;;;9.83;;
19788;SDS011;10054;59.332;18.244;2022-10-31T13:15:48;19.37;;;9.20;;
19788;SDS011;10054;59.332;18.244;2022-10-31T13:18:29;20.73;;;9.07;;
19788;SDS011;10054;59.332;18.244;2022-10-31T13:21:03;18.47;;;8.90;;
19788;SDS011;10054;59.332;18.244;2022-10-31T13:23:35;16.63;;;8.77;;
19788;SDS011;10054;59.332;18.244;2022-10-31T13:26:13;17.07;;;8.97;;
19788;SDS011;10054;59.332;18.244;2022-10-31T13:28:50;19.10;;;8.60;;
19788;SDS011;10054;59.332;18.244;2022-10-31T13:31:15;18.67;;;9.00;;
19788;SDS011;10054;59.332;18.244;2022-10-31T13:33:46;15.83;;;9.07;;
19788;SDS011;10054;59.332;18.244;2022-10-31T13:39:14;15.77;;;8.53;;
19788;SDS011;10054;59.332;18.244;2022-10-31T13:44:27;17.07;;;8.67;;
19788;SDS011;10054;59.332;18.244;2022-10-31T13:46:57;14.30;;;8.47;;
19788;SDS011;10054;59.332;18.244;2022-10-31T13:54:47;14.73;;;8.17;;
19788;SDS011;10054;59.332;18.244;2022-10-31T13:57:22;14.87;;;7.90;;
19788;SDS011;10054;59.332;18.244;2022-10-31T13:59:52;16.33;;;7.83;;
19788;SDS011;10054;59.332;18.244;2022-10-31T14:02:27;13.10;;;7.10;;
19788;SDS011;10054;59.332;18.244;2022-10-31T14:04:59;16.50;;;8.00;;
19788;SDS011;10054;59.332;18.244;2022-10-31T14:07:41;16.07;;;7.00;;
19788;SDS011;10054;59.332;18.244;2022-10-31T14:10:28;12.07;;;7.20;;
19788;SDS011;10054;59.332;18.244;2022-10-31T14:13:07;16.60;;;7.77;;
19788;SDS011;10054;59.332;18.244;2022-10-31T14:15:38;16.80;;;7.10;;
19788;SDS011;10054;59.332;18.244;2022-10-31T14:18:25;12.70;;;6.80;;
19788;SDS011;10054;59.332;18.244;2022-10-31T14:20:55;14.37;;;7.03;;
19788;SDS011;10054;59.332;18.244;2022-10-31T14:28:55;13.37;;;7.00;;
19788;SDS011;10054;59.332;18.244;2022-10-31T14:31:38;13.43;;;7.20;;
19788;SDS011;10054;59.332;18.244;2022-10-31T14:40:14;12.27;;;6.77;;
19788;SDS011;10054;59.332;18.244;2022-10-31T14:42:46;12.33;;;7.03;;
19788;SDS011;10054;59.332;18.244;2022-10-31T14:48:17;15.00;;;6.87;;
19788;SDS011;10054;59.332;18.244;2022-10-31T14:50:47;16.10;;;6.77;;
19788;SDS011;10054;59.332;18.244;2022-10-31T14:53:19;13.97;;;7.20;;
19788;SDS011;10054;59.332;18.244;2022-10-31T14:55:54;12.90;;;6.80;;
19788;SDS011;10054;59.332;18.244;2022-10-31T14:58:28;16.13;;;7.20;;
19788;SDS011;10054;59.332;18.244;2022-10-31T15:00:58;11.40;;;6.70;;
19788;SDS011;10054;59.332;18.244;2022-10-31T15:03:36;13.80;;;7.57;;
19788;SDS011;10054;59.332;18.244;2022-10-31T15:06:04;16.60;;;6.60;;
19788;SDS011;10054;59.332;18.244;2022-10-31T15:08:44;9.87;;;6.53;;
19788;SDS011;10054;59.332;18.244;2022-10-31T15:11:16;12.03;;;6.40;;
19788;SDS011;10054;59.332;18.244;2022-10-31T15:13:47;14.17;;;6.17;;
19788;SDS011;10054;59.332;18.244;2022-10-31T15:16:32;17.03;;;6.57;;
19788;SDS011;10054;59.332;18.244;2022-10-31T15:18:58;11.77;;;6.13;;
19788;SDS011;10054;59.332;18.244;2022-10-31T15:21:30;13.23;;;6.63;;
19788;SDS011;10054;59.332;18.244;2022-10-31T15:23:59;8.40;;;6.00;;
19788;SDS011;10054;59.332;18.244;2022-10-31T15:26:34;8.70;;;6.00;;
19788;SDS011;10054;59.332;18.244;2022-10-31T15:29:12;14.07;;;5.83;;
19788;SDS011;10054;59.332;18.244;2022-10-31T15:31:54;8.13;;;5.40;;
19788;SDS011;10054;59.332;18.244;2022-10-31T15:37:11;9.17;;;5.60;;
19788;SDS011;10054;59.332;18.244;2022-10-31T15:39:42;11.13;;;5.97;;
19788;SDS011;10054;59.332;18.244;2022-10-31T15:42:18;10.17;;;5.70;;
19788;SDS011;10054;59.332;18.244;2022-10-31T15:47:39;13.43;;;5.90;;
19788;SDS011;10054;59.332;18.244;2022-10-31T15:50:20;9.57;;;6.13;;
19788;SDS011;10054;59.332;18.244;2022-10-31T15:52:57;11.93;;;6.37;;
19788;SDS011;10054;59.332;18.244;2022-10-31T15:55:27;10.90;;;6.20;;
19788;SDS011;10054;59.332;18.244;2022-10-31T15:58:00;11.00;;;6.07;;
19788;SDS011;10054;59.332;18.244;2022-10-31T16:00:32;14.20;;;6.07;;
19788;SDS011;10054;59.332;18.244;2022-10-31T16:03:03;11.47;;;5.70;;
19788;SDS011;10054;59.332;18.244;2022-10-31T16:05:46;11.17;;;6.37;;
19788;SDS011;10054;59.332;18.244;2022-10-31T16:08:21;10.87;;;5.73;;
19788;SDS011;10054;59.332;18.244;2022-10-31T16:11:17;7.73;;;5.47;;
19788;SDS011;10054;59.332;18.244;2022-10-31T16:13:41;11.17;;;6.10;;
19788;SDS011;10054;59.332;18.244;2022-10-31T16:16:22;11.27;;;6.67;;
19788;SDS011;10054;59.332;18.244;2022-10-31T16:18:51;13.10;;;6.90;;
19788;SDS011;10054;59.332;18.244;2022-10-31T16:21:25;13.23;;;6.00;;
19788;SDS011;10054;59.332;18.244;2022-10-31T16:24:03;9.87;;;6.20;;
19788;SDS011;10054;59.332;18.244;2022-10-31T16:26:34;12.60;;;6.60;;
19788;SDS011;10054;59.332;18.244;2022-10-31T16:29:03;9.57;;;6.00;;
19788;SDS011;10054;59.332;18.244;2022-10-31T16:31:36;10.40;;;6.37;;
19788;SDS011;10054;59.332;18.244;2022-10-31T16:34:17;10.97;;;6.63;;
19788;SDS011;10054;59.332;18.244;2022-10-31T16:36:47;12.57;;;6.63;;
19788;SDS011;10054;59.332;18.244;2022-10-31T16:39:16;13.23;;;6.67;;
19788;SDS011;10054;59.332;18.244;2022-10-31T16:41:46;12.27;;;6.97;;
19788;SDS011;10054;59.332;18.244;2022-10-31T16:44:22;14.57;;;7.20;;
19788;SDS011;10054;59.332;18.244;2022-10-31T16:46:50;12.33;;;6.47;;
19788;SDS011;10054;59.332;18.244;2022-10-31T16:49:36;10.10;;;6.77;;
19788;SDS011;10054;59.332;18.244;2022-10-31T16:52:05;12.93;;;6.87;;
19788;SDS011;10054;59.332;18.244;2022-10-31T16:54:34;15.30;;;7.00;;
19788;SDS011;10054;59.332;18.244;2022-10-31T16:57:03;12.07;;;7.33;;
19788;SDS011;10054;59.332;18.244;2022-10-31T16:59:33;11.60;;;6.27;;